Time;durP1;ratioP1;P1;durP2;ratioP2;P2;SDS_P1;SDS_P2;PMS_P1;PMS_P2;Temp;Humidity;BMP_temperature;BMP_pressure;BME280_temperature;BME280_humidity;BME280_pressure;Samples;Min_cycle;Max_cycle;Signal;HPM_P1;HPM_P2
2024/01/11 00:02:10;;;;;;;25.23;10.37;;;;;;;;;;5054033;28;20471;-58
2024/01/11 00:04:35;;;;;;;27.90;10.43;;;;;;;;;;5069417;28;20016;-58
2024/01/11 00:07:01;;;;;;;27.13;10.45;;;;;;;;;;5059037;28;20013;-58
2024/01/11 00:09:26;;;;;;;27.15;9.55;;;;;;;;;;5066541;28;20052;-58
2024/01/11 00:11:51;;;;;;;27.15;9.18;;;;;;;;;;5059746;28;20025;-58
2024/01/11 00:14:16;;;;;;;25.45;9.30;;;;;;;;;;5050014;28;20021;-58
2024/01/11 00:16:41;;;;;;;27.35;10.15;;;;;;;;;;5059316;28;20071;-57
2024/01/11 00:19:06;;;;;;;26.27;9.43;;;;;;;;;;5050792;28;20020;-58
2024/01/11 00:21:31;;;;;;;25.80;10.13;;;;;;;;;;5060390;28;21041;-59
2024/01/11 00:23:57;;;;;;;25.70;9.63;;;;;;;;;;5057557;28;20039;-58
2024/01/11 00:26:22;;;;;;;29.80;10.33;;;;;;;;;;5059094;28;20083;-57
2024/01/11 00:28:47;;;;;;;29.75;10.68;;;;;;;;;;5052492;28;20112;-58
2024/01/11 00:31:12;;;;;;;30.80;10.30;;;;;;;;;;5069822;28;20025;-57
2024/01/11 00:33:37;;;;;;;26.13;10.27;;;;;;;;;;5067517;28;20031;-58
2024/01/11 00:36:03;;;;;;;27.63;10.23;;;;;;;;;;5065417;28;20059;-58
2024/01/11 00:38:28;;;;;;;28.02;10.10;;;;;;;;;;5055707;28;20071;-57
2024/01/11 00:40:53;;;;;;;28.90;10.02;;;;;;;;;;5062463;28;20033;-57
2024/01/11 00:43:18;;;;;;;27.75;9.63;;;;;;;;;;5063202;28;20084;-58
2024/01/11 00:45:45;;;;;;;24.27;8.68;;;;;;;;;;5074900;28;20033;-58
2024/01/11 00:48:11;;;;;;;24.35;8.70;;;;;;;;;;5061442;28;20021;-58
2024/01/11 00:50:36;;;;;;;24.47;9.20;;;;;;;;;;5072283;28;20100;-57
2024/01/11 00:53:01;;;;;;;25.17;9.27;;;;;;;;;;5065431;28;20051;-58
2024/01/11 00:55:26;;;;;;;25.00;9.02;;;;;;;;;;5051610;28;20122;-58
2024/01/11 00:57:51;;;;;;;24.67;8.73;;;;;;;;;;5063351;28;20051;-56
2024/01/11 01:00:16;;;;;;;26.00;9.10;;;;;;;;;;5068143;28;20455;-58
2024/01/11 01:02:42;;;;;;;25.23;9.57;;;;;;;;;;5069086;28;20033;-58
2024/01/11 01:05:07;;;;;;;26.30;9.30;;;;;;;;;;5070264;28;20111;-56
2024/01/11 01:07:32;;;;;;;25.33;9.20;;;;;;;;;;5064328;28;20454;-57
2024/01/11 01:09:57;;;;;;;28.02;9.70;;;;;;;;;;5059755;28;20063;-58
2024/01/11 01:12:24;;;;;;;30.02;9.65;;;;;;;;;;5069288;28;20040;-58
2024/01/11 01:14:50;;;;;;;25.02;8.90;;;;;;;;;;5063969;28;20029;-57
2024/01/11 01:17:15;;;;;;;26.80;9.27;;;;;;;;;;5063379;28;20017;-58
2024/01/11 01:19:40;;;;;;;22.65;8.85;;;;;;;;;;5062985;28;20027;-58
2024/01/11 01:22:05;;;;;;;25.08;9.13;;;;;;;;;;5055776;28;20029;-58
2024/01/11 01:24:30;;;;;;;21.38;7.53;;;;;;;;;;5073681;28;20048;-58
2024/01/11 01:26:56;;;;;;;22.65;9.18;;;;;;;;;;5070715;28;20383;-56
2024/01/11 01:29:21;;;;;;;25.43;9.77;;;;;;;;;;5068841;28;20439;-58
2024/01/11 01:31:46;;;;;;;21.48;8.70;;;;;;;;;;5064706;28;20078;-57
2024/01/11 01:34:11;;;;;;;28.58;9.30;;;;;;;;;;5056555;28;20387;-58
2024/01/11 01:36:36;;;;;;;24.67;8.83;;;;;;;;;;5053689;28;20021;-58
2024/01/11 01:39:03;;;;;;;23.88;9.10;;;;;;;;;;5069592;28;20352;-57
2024/01/11 01:41:28;;;;;;;25.00;9.05;;;;;;;;;;5067118;28;20025;-57
2024/01/11 01:43:53;;;;;;;28.97;9.40;;;;;;;;;;5072810;28;20120;-59
2024/01/11 01:46:21;;;;;;;26.73;8.88;;;;;;;;;;5073617;28;20096;-56
2024/01/11 01:48:46;;;;;;;27.17;10.38;;;;;;;;;;5061350;28;20527;-58
2024/01/11 01:51:11;;;;;;;25.23;9.43;;;;;;;;;;5064539;28;20099;-58
2024/01/11 01:53:37;;;;;;;23.48;8.77;;;;;;;;;;5062792;28;20561;-58
2024/01/11 01:56:02;;;;;;;27.67;9.63;;;;;;;;;;5069846;28;20111;-58
2024/01/11 01:58:27;;;;;;;27.57;9.43;;;;;;;;;;5065705;28;20469;-58
2024/01/11 02:00:52;;;;;;;26.53;9.43;;;;;;;;;;5072823;28;20025;-58
2024/01/11 02:03:18;;;;;;;25.02;8.85;;;;;;;;;;5073034;28;20064;-58
2024/01/11 02:05:43;;;;;;;24.83;9.43;;;;;;;;;;5073294;28;20028;-58
2024/01/11 02:08:08;;;;;;;25.00;9.10;;;;;;;;;;5073204;28;20448;-58
2024/01/11 02:10:34;;;;;;;26.50;9.57;;;;;;;;;;5058332;28;20074;-58
2024/01/11 02:12:59;;;;;;;25.48;9.13;;;;;;;;;;5068540;28;20520;-55
2024/01/11 02:15:24;;;;;;;23.38;8.68;;;;;;;;;;5070975;28;20439;-56
2024/01/11 02:17:49;;;;;;;24.60;8.40;;;;;;;;;;5058769;28;20017;-57
2024/01/11 02:20:15;;;;;;;23.10;8.37;;;;;;;;;;5055495;28;20088;-57
2024/01/11 02:22:41;;;;;;;24.30;8.20;;;;;;;;;;5072690;28;20392;-58
2024/01/11 02:25:06;;;;;;;21.52;7.93;;;;;;;;;;5069430;28;20065;-58
2024/01/11 02:27:43;;;;;;;23.67;8.65;;;;;;;;;;5054256;28;20103;-56
2024/01/11 02:30:09;;;;;;;23.85;8.20;;;;;;;;;;5053932;28;20033;-59
2024/01/11 02:32:34;;;;;;;22.80;8.80;;;;;;;;;;5070601;28;20391;-59
2024/01/11 02:34:59;;;;;;;22.00;8.30;;;;;;;;;;5069134;28;20029;-55
2024/01/11 02:37:24;;;;;;;24.00;8.17;;;;;;;;;;5054215;28;20037;-56
2024/01/11 02:39:50;;;;;;;25.53;7.97;;;;;;;;;;5067369;28;20107;-58
2024/01/11 02:42:15;;;;;;;35.47;9.63;;;;;;;;;;5071659;28;20031;-57
2024/01/11 02:44:40;;;;;;;28.27;9.65;;;;;;;;;;5072134;28;20349;-58
2024/01/11 02:47:06;;;;;;;24.07;8.63;;;;;;;;;;5072582;28;20032;-59
2024/01/11 02:49:31;;;;;;;23.53;9.20;;;;;;;;;;5070841;28;20024;-58
2024/01/11 02:51:56;;;;;;;25.05;8.77;;;;;;;;;;5054760;28;20482;-57
2024/01/11 02:54:21;;;;;;;24.13;8.63;;;;;;;;;;5065764;28;20048;-57
2024/01/11 02:56:46;;;;;;;24.90;8.60;;;;;;;;;;5071008;28;20043;-57
2024/01/11 02:59:11;;;;;;;27.47;8.70;;;;;;;;;;5067303;28;20020;-56
2024/01/11 03:01:36;;;;;;;24.40;8.82;;;;;;;;;;5063484;28;20021;-59
2024/01/11 03:04:02;;;;;;;26.10;8.90;;;;;;;;;;5066326;28;20039;-57
2024/01/11 03:06:27;;;;;;;23.83;8.43;;;;;;;;;;5071420;28;20044;-57
2024/01/11 03:08:52;;;;;;;26.70;9.18;;;;;;;;;;5067370;28;20067;-57
2024/01/11 03:11:17;;;;;;;28.17;9.75;;;;;;;;;;5064969;28;20460;-58
2024/01/11 03:13:43;;;;;;;22.13;8.40;;;;;;;;;;5060812;28;20091;-59
2024/01/11 03:16:08;;;;;;;25.52;8.98;;;;;;;;;;5052990;28;20104;-57
2024/01/11 03:18:33;;;;;;;21.13;7.88;;;;;;;;;;5058898;28;20087;-58
2024/01/11 03:20:58;;;;;;;24.97;8.43;;;;;;;;;;5068246;28;20487;-58
2024/01/11 03:23:23;;;;;;;26.00;9.23;;;;;;;;;;5067825;28;20028;-58
2024/01/11 03:25:48;;;;;;;25.23;9.20;;;;;;;;;;5070010;28;20741;-58
2024/01/11 03:28:14;;;;;;;21.63;7.97;;;;;;;;;;5067313;28;20417;-58
2024/01/11 03:30:39;;;;;;;25.63;8.97;;;;;;;;;;5067560;28;20021;-59
2024/01/11 03:33:04;;;;;;;24.65;9.00;;;;;;;;;;5063594;28;20016;-58
2024/01/11 03:35:29;;;;;;;22.60;8.40;;;;;;;;;;5055401;28;20105;-58
2024/01/11 03:37:54;;;;;;;27.67;8.85;;;;;;;;;;5068045;28;20025;-57
2024/01/11 03:40:19;;;;;;;28.63;9.43;;;;;;;;;;5055255;28;20016;-57
2024/01/11 03:42:45;;;;;;;24.92;8.70;;;;;;;;;;5059714;28;20063;-59
2024/01/11 03:45:10;;;;;;;26.17;8.30;;;;;;;;;;5069438;28;20029;-58
2024/01/11 03:47:35;;;;;;;28.07;8.70;;;;;;;;;;5061383;28;20457;-58
2024/01/11 03:50:00;;;;;;;24.97;8.37;;;;;;;;;;5072009;28;20021;-58
2024/01/11 03:52:25;;;;;;;23.23;9.18;;;;;;;;;;5055986;28;20438;-57
2024/01/11 03:54:50;;;;;;;21.75;8.65;;;;;;;;;;5059059;28;20029;-58
2024/01/11 03:57:17;;;;;;;20.45;8.18;;;;;;;;;;5066829;28;20017;-59
2024/01/11 03:59:42;;;;;;;25.50;8.65;;;;;;;;;;5065260;28;20028;-58
2024/01/11 04:02:07;;;;;;;26.58;8.82;;;;;;;;;;5070877;28;20047;-57
2024/01/11 04:04:32;;;;;;;23.52;8.07;;;;;;;;;;5054462;28;20037;-58
2024/01/11 04:06:57;;;;;;;25.38;8.65;;;;;;;;;;5066669;28;20029;-57
2024/01/11 04:09:23;;;;;;;23.63;8.43;;;;;;;;;;5068596;28;20029;-58
2024/01/11 04:11:48;;;;;;;23.73;7.70;;;;;;;;;;5060167;28;20029;-58
2024/01/11 04:14:13;;;;;;;21.10;7.70;;;;;;;;;;5050745;28;20037;-57
2024/01/11 04:16:41;;;;;;;26.00;8.20;;;;;;;;;;5051279;28;20027;-58
2024/01/11 04:19:07;;;;;;;20.40;8.07;;;;;;;;;;5054046;28;20040;-58
2024/01/11 04:21:32;;;;;;;21.45;7.68;;;;;;;;;;5059196;28;20024;-58
2024/01/11 04:23:57;;;;;;;20.98;7.63;;;;;;;;;;5070030;28;20493;-57
2024/01/11 04:26:22;;;;;;;22.55;8.02;;;;;;;;;;5067868;28;20024;-58
2024/01/11 04:28:48;;;;;;;21.13;7.57;;;;;;;;;;5066414;28;20041;-57
2024/01/11 04:31:14;;;;;;;20.00;7.47;;;;;;;;;;5068365;28;20028;-58
2024/01/11 04:33:43;;;;;;;22.30;7.90;;;;;;;;;;5068407;28;20024;-58
2024/01/11 04:36:08;;;;;;;21.35;7.65;;;;;;;;;;5058360;28;20165;-57
2024/01/11 04:38:34;;;;;;;19.70;6.93;;;;;;;;;;5067557;28;20531;-57
2024/01/11 04:40:59;;;;;;;23.15;7.63;;;;;;;;;;5068890;28;20017;-57
2024/01/11 04:43:24;;;;;;;23.40;7.33;;;;;;;;;;5064136;28;20024;-57
2024/01/11 04:45:49;;;;;;;23.38;7.88;;;;;;;;;;5069762;28;20017;-58
2024/01/11 04:48:14;;;;;;;19.50;7.83;;;;;;;;;;5052860;28;20113;-58
2024/01/11 04:50:39;;;;;;;22.40;7.95;;;;;;;;;;5050477;28;20025;-57
2024/01/11 04:53:04;;;;;;;23.60;8.13;;;;;;;;;;5059727;28;20028;-57
2024/01/11 04:55:30;;;;;;;22.98;7.43;;;;;;;;;;5049690;28;20025;-57
2024/01/11 04:57:55;;;;;;;22.70;7.65;;;;;;;;;;5056121;28;20477;-58
2024/01/11 05:00:20;;;;;;;24.50;7.50;;;;;;;;;;5061204;28;20056;-58
2024/01/11 05:02:45;;;;;;;24.73;8.00;;;;;;;;;;5061688;28;20086;-58
2024/01/11 05:05:10;;;;;;;25.77;8.37;;;;;;;;;;5071659;28;20426;-57
2024/01/11 05:07:37;;;;;;;22.83;7.95;;;;;;;;;;5071804;28;20016;-57
2024/01/11 05:10:02;;;;;;;21.00;8.10;;;;;;;;;;5058127;28;20028;-57
2024/01/11 05:12:27;;;;;;;21.52;8.48;;;;;;;;;;5051878;28;20413;-57
2024/01/11 05:14:53;;;;;;;23.80;7.77;;;;;;;;;;5053988;28;20052;-56
2024/01/11 05:17:18;;;;;;;22.35;7.88;;;;;;;;;;5073736;28;20016;-58
2024/01/11 05:19:43;;;;;;;18.63;7.47;;;;;;;;;;5060162;28;20047;-57
2024/01/11 05:22:08;;;;;;;21.95;8.85;;;;;;;;;;5060578;28;20016;-57
2024/01/11 05:24:33;;;;;;;22.37;8.20;;;;;;;;;;5068347;28;20021;-59
2024/01/11 05:26:59;;;;;;;22.07;7.80;;;;;;;;;;5060072;28;20554;-58
2024/01/11 05:29:24;;;;;;;19.70;7.72;;;;;;;;;;5062452;28;20020;-58
2024/01/11 05:31:49;;;;;;;26.05;8.32;;;;;;;;;;5062202;28;20102;-58
2024/01/11 05:34:14;;;;;;;22.63;8.07;;;;;;;;;;5073196;28;20025;-57
2024/01/11 05:36:39;;;;;;;21.63;7.15;;;;;;;;;;5055064;28;20020;-57
2024/01/11 05:39:05;;;;;;;20.90;7.10;;;;;;;;;;5060960;28;20080;-58
2024/01/11 05:41:30;;;;;;;21.40;7.88;;;;;;;;;;5061767;28;20024;-58
2024/01/11 05:43:56;;;;;;;22.80;8.02;;;;;;;;;;5064117;28;20029;-58
2024/01/11 05:46:21;;;;;;;22.87;8.80;;;;;;;;;;5047278;28;20029;-58
2024/01/11 05:48:46;;;;;;;20.85;7.97;;;;;;;;;;5060162;28;20036;-57
2024/01/11 05:51:12;;;;;;;25.33;8.70;;;;;;;;;;5062004;28;20025;-56
2024/01/11 05:53:37;;;;;;;23.83;8.38;;;;;;;;;;5060667;28;20202;-58
2024/01/11 05:56:06;;;;;;;25.37;7.90;;;;;;;;;;5050732;28;20069;-57
2024/01/11 05:58:31;;;;;;;23.77;8.13;;;;;;;;;;5055392;28;20123;-57
2024/01/11 06:00:57;;;;;;;24.60;8.30;;;;;;;;;;5048291;28;20144;-58
2024/01/11 06:03:22;;;;;;;21.92;7.57;;;;;;;;;;5055522;28;20021;-57
2024/01/11 06:05:48;;;;;;;21.17;7.88;;;;;;;;;;5064394;28;20165;-57
2024/01/11 06:08:13;;;;;;;25.80;9.13;;;;;;;;;;5063163;28;20017;-57
2024/01/11 06:10:38;;;;;;;21.60;7.25;;;;;;;;;;5056139;28;20036;-57
2024/01/11 06:13:04;;;;;;;21.50;7.85;;;;;;;;;;5059773;28;20021;-57
2024/01/11 06:15:29;;;;;;;23.63;8.30;;;;;;;;;;5054182;28;20017;-59
2024/01/11 06:17:54;;;;;;;20.63;8.57;;;;;;;;;;5068204;28;20399;-57
2024/01/11 06:20:19;;;;;;;25.93;8.40;;;;;;;;;;5060874;28;20103;-57
2024/01/11 06:22:44;;;;;;;21.13;7.83;;;;;;;;;;5067345;28;20512;-57
2024/01/11 06:25:10;;;;;;;22.08;7.75;;;;;;;;;;5065485;28;20473;-57
2024/01/11 06:27:35;;;;;;;23.13;8.80;;;;;;;;;;5073444;28;20353;-57
2024/01/11 06:30:01;;;;;;;21.70;7.15;;;;;;;;;;5073085;28;20092;-58
2024/01/11 06:32:26;;;;;;;25.40;8.38;;;;;;;;;;5071195;28;20016;-58
2024/01/11 06:34:51;;;;;;;21.45;8.10;;;;;;;;;;5072455;28;20502;-58
2024/01/11 06:37:17;;;;;;;24.10;8.43;;;;;;;;;;5059269;28;20098;-57
2024/01/11 06:39:42;;;;;;;20.08;7.88;;;;;;;;;;5059575;28;20013;-57
2024/01/11 06:42:07;;;;;;;23.98;8.60;;;;;;;;;;5072549;28;20517;-58
2024/01/11 06:44:33;;;;;;;22.73;7.93;;;;;;;;;;5066459;28;20017;-57
2024/01/11 06:46:58;;;;;;;22.53;7.57;;;;;;;;;;5057018;28;20117;-57
2024/01/11 06:49:23;;;;;;;22.20;7.65;;;;;;;;;;5063043;28;20021;-58
2024/01/11 06:51:48;;;;;;;22.20;8.30;;;;;;;;;;5069851;28;20031;-58
2024/01/11 06:54:13;;;;;;;25.63;8.00;;;;;;;;;;5055456;28;20064;-58
2024/01/11 06:56:39;;;;;;;22.13;8.23;;;;;;;;;;5057779;28;20021;-57
2024/01/11 06:59:04;;;;;;;25.47;8.50;;;;;;;;;;5060263;28;20447;-58
2024/01/11 07:01:29;;;;;;;23.20;7.80;;;;;;;;;;5068430;28;20037;-58
2024/01/11 07:03:54;;;;;;;25.77;8.75;;;;;;;;;;5061394;28;20033;-57
2024/01/11 07:06:19;;;;;;;27.00;9.43;;;;;;;;;;5068828;28;20025;-59
2024/01/11 07:08:44;;;;;;;21.20;8.30;;;;;;;;;;5059142;28;20021;-58
2024/01/11 07:11:10;;;;;;;30.17;9.00;;;;;;;;;;5070289;28;20023;-58
2024/01/11 07:13:36;;;;;;;26.08;8.85;;;;;;;;;;5069789;28;20035;-58
2024/01/11 07:16:03;;;;;;;25.52;8.93;;;;;;;;;;5066436;28;20025;-57
2024/01/11 07:18:28;;;;;;;27.25;8.98;;;;;;;;;;5053807;28;20056;-58
2024/01/11 07:20:55;;;;;;;25.52;10.07;;;;;;;;;;5059399;28;20119;-57
2024/01/11 07:23:20;;;;;;;29.38;8.93;;;;;;;;;;5069194;28;20086;-57
2024/01/11 07:25:46;;;;;;;24.75;9.15;;;;;;;;;;5069533;28;20028;-58
2024/01/11 07:28:11;;;;;;;21.88;8.15;;;;;;;;;;5065214;28;20021;-57
2024/01/11 07:30:37;;;;;;;24.97;8.13;;;;;;;;;;5069612;28;20047;-58
2024/01/11 07:33:02;;;;;;;24.07;8.90;;;;;;;;;;5071367;28;20164;-58
2024/01/11 07:35:27;;;;;;;23.53;8.30;;;;;;;;;;5070352;28;20103;-58
2024/01/11 07:37:52;;;;;;;25.17;8.40;;;;;;;;;;5067240;28;20465;-58
2024/01/11 07:40:17;;;;;;;20.23;8.32;;;;;;;;;;5062294;28;20056;-57
2024/01/11 07:42:43;;;;;;;21.77;8.63;;;;;;;;;;5067373;28;20029;-58
2024/01/11 07:45:10;;;;;;;19.50;7.97;;;;;;;;;;5062079;28;20864;-58
2024/01/11 07:47:36;;;;;;;22.13;8.05;;;;;;;;;;5053453;28;20424;-58
2024/01/11 07:50:01;;;;;;;23.08;8.32;;;;;;;;;;5057566;28;20032;-58
2024/01/11 07:52:26;;;;;;;23.95;8.20;;;;;;;;;;5060024;28;20499;-58
2024/01/11 07:54:53;;;;;;;27.97;8.17;;;;;;;;;;5060929;28;20033;-58
2024/01/11 07:57:19;;;;;;;24.30;8.27;;;;;;;;;;5065169;28;20016;-58
2024/01/11 07:59:44;;;;;;;26.77;8.95;;;;;;;;;;5073616;28;20361;-58
2024/01/11 08:02:09;;;;;;;21.10;8.17;;;;;;;;;;5072193;28;20044;-57
2024/01/11 08:04:34;;;;;;;23.15;8.65;;;;;;;;;;5070451;28;20012;-57
2024/01/11 08:06:59;;;;;;;23.67;8.32;;;;;;;;;;5066447;28;20052;-58
2024/01/11 08:09:28;;;;;;;21.07;7.63;;;;;;;;;;5066062;28;20031;-57
2024/01/11 08:11:54;;;;;;;23.73;8.20;;;;;;;;;;5070500;28;20081;-58
2024/01/11 08:14:19;;;;;;;21.95;8.18;;;;;;;;;;5070467;28;20067;-58
2024/01/11 08:16:44;;;;;;;20.20;7.63;;;;;;;;;;5071022;28;20476;-59
2024/01/11 08:19:10;;;;;;;20.02;8.25;;;;;;;;;;5070578;28;20025;-58
2024/01/11 08:21:35;;;;;;;19.70;7.20;;;;;;;;;;5066911;28;20487;-59
2024/01/11 08:24:02;;;;;;;21.63;8.37;;;;;;;;;;5069979;28;20081;-59
2024/01/11 08:26:27;;;;;;;22.08;8.00;;;;;;;;;;5070561;28;20012;-58
2024/01/11 08:28:53;;;;;;;22.20;8.55;;;;;;;;;;5070142;28;20024;-58
2024/01/11 08:31:18;;;;;;;27.63;9.48;;;;;;;;;;5070293;28;20052;-59
2024/01/11 08:33:44;;;;;;;24.07;9.03;;;;;;;;;;5070658;28;20550;-59
2024/01/11 08:36:10;;;;;;;25.03;8.57;;;;;;;;;;5070607;28;20085;-58
2024/01/11 08:38:35;;;;;;;24.90;9.35;;;;;;;;;;5068568;28;21300;-58
2024/01/11 08:41:01;;;;;;;28.30;10.77;;;;;;;;;;5070524;28;20035;-56
2024/01/11 08:43:27;;;;;;;22.67;9.23;;;;;;;;;;5070323;28;20384;-59
2024/01/11 08:45:52;;;;;;;22.98;8.25;;;;;;;;;;5070569;28;20107;-58
2024/01/11 08:48:17;;;;;;;18.90;7.73;;;;;;;;;;5069161;28;20103;-59
2024/01/11 08:50:42;;;;;;;22.73;8.05;;;;;;;;;;5070468;28;20017;-59
2024/01/11 08:53:07;;;;;;;27.00;8.13;;;;;;;;;;5068038;28;20020;-59
2024/01/11 08:55:32;;;;;;;21.08;7.93;;;;;;;;;;5069920;28;20024;-59
2024/01/11 08:57:58;;;;;;;21.07;7.97;;;;;;;;;;5070346;28;20043;-59
2024/01/11 09:00:23;;;;;;;21.05;8.02;;;;;;;;;;5067684;28;20020;-58
2024/01/11 09:02:49;;;;;;;24.00;8.27;;;;;;;;;;5067417;28;20558;-58
2024/01/11 09:05:14;;;;;;;19.33;7.50;;;;;;;;;;5069960;28;20035;-57
2024/01/11 09:07:39;;;;;;;22.67;8.63;;;;;;;;;;5067177;28;20020;-58
2024/01/11 09:10:05;;;;;;;22.42;9.18;;;;;;;;;;5062953;28;20027;-58
2024/01/11 09:12:30;;;;;;;22.05;8.40;;;;;;;;;;5069344;28;20063;-58
2024/01/11 09:14:55;;;;;;;20.13;8.15;;;;;;;;;;5070131;28;20033;-58
2024/01/11 09:17:21;;;;;;;20.30;8.30;;;;;;;;;;5068779;28;20476;-59
2024/01/11 09:19:46;;;;;;;23.02;8.60;;;;;;;;;;5069307;28;20032;-58
2024/01/11 09:22:12;;;;;;;24.15;8.50;;;;;;;;;;5069679;28;20044;-57
2024/01/11 09:24:37;;;;;;;23.92;9.30;;;;;;;;;;5069873;28;20440;-57
2024/01/11 09:27:03;;;;;;;21.48;8.30;;;;;;;;;;5070415;28;20469;-59
2024/01/11 09:29:29;;;;;;;21.35;8.20;;;;;;;;;;5070029;28;20029;-58
2024/01/11 09:31:54;;;;;;;24.63;9.38;;;;;;;;;;5069472;28;20029;-58
2024/01/11 09:34:19;;;;;;;23.77;9.02;;;;;;;;;;5069809;28;20031;-58
2024/01/11 09:36:45;;;;;;;25.63;9.18;;;;;;;;;;5066965;28;20059;-58
2024/01/11 09:39:13;;;;;;;26.15;9.07;;;;;;;;;;5061580;28;20021;-58
2024/01/11 09:41:41;;;;;;;25.38;9.55;;;;;;;;;;5067523;28;20044;-58
2024/01/11 09:44:06;;;;;;;23.67;9.30;;;;;;;;;;5073162;28;20052;-57
2024/01/11 09:46:32;;;;;;;28.90;10.60;;;;;;;;;;5073386;28;20020;-58
2024/01/11 09:48:57;;;;;;;26.38;10.32;;;;;;;;;;5073598;28;20505;-57
2024/01/11 09:51:22;;;;;;;32.00;12.87;;;;;;;;;;5072155;28;20037;-58
2024/01/11 09:53:50;;;;;;;29.30;12.30;;;;;;;;;;5071810;28;20516;-58
2024/01/11 09:56:16;;;;;;;35.17;13.35;;;;;;;;;;5072025;28;20421;-58
2024/01/11 09:58:44;;;;;;;31.40;12.05;;;;;;;;;;5074592;28;20099;-58
2024/01/11 10:01:12;;;;;;;34.92;12.52;;;;;;;;;;5074321;28;20024;-58
2024/01/11 10:03:38;;;;;;;30.33;12.10;;;;;;;;;;5075094;28;20028;-59
2024/01/11 10:06:04;;;;;;;32.35;13.18;;;;;;;;;;5075657;28;20359;-58
2024/01/11 10:08:29;;;;;;;30.42;12.52;;;;;;;;;;5071436;28;20016;-58
2024/01/11 10:10:55;;;;;;;31.83;12.17;;;;;;;;;;5073540;28;20490;-59
2024/01/11 10:13:25;;;;;;;35.08;12.63;;;;;;;;;;5074103;28;20028;-58
2024/01/11 10:15:51;;;;;;;34.83;12.70;;;;;;;;;;5074506;28;20060;-58
2024/01/11 10:18:16;;;;;;;41.75;14.60;;;;;;;;;;5073567;28;20414;-58
2024/01/11 10:20:41;;;;;;;31.05;13.45;;;;;;;;;;5073471;28;20021;-58
2024/01/11 10:23:06;;;;;;;33.33;12.50;;;;;;;;;;5068716;28;20029;-58
2024/01/11 10:25:31;;;;;;;29.97;12.67;;;;;;;;;;5071680;28;20031;-58
2024/01/11 10:27:58;;;;;;;30.40;12.17;;;;;;;;;;5073509;28;20472;-59
2024/01/11 10:30:24;;;;;;;33.55;12.73;;;;;;;;;;5069363;28;20091;-57
2024/01/11 10:32:49;;;;;;;33.92;14.13;;;;;;;;;;5071876;28;20020;-59
2024/01/11 10:35:16;;;;;;;31.00;13.27;;;;;;;;;;5072548;28;20069;-57
2024/01/11 10:37:42;;;;;;;;;;;;;;;;;;5073041;28;20440;-59
2024/01/11 10:40:12;;;;;;;31.83;12.57;;;;;;;;;;5072676;28;19919;-59
2024/01/11 10:42:44;;;;;;;31.45;12.68;;;;;;;;;;5070800;28;20043;-58
2024/01/11 10:45:16;;;;;;;32.90;13.35;;;;;;;;;;5060388;28;20100;-57
2024/01/11 10:47:53;;;;;;;37.38;13.07;;;;;;;;;;5070198;28;20027;-58
2024/01/11 10:50:19;;;;;;;34.67;14.52;;;;;;;;;;5072560;28;20423;-58
2024/01/11 10:52:50;;;;;;;32.63;13.52;;;;;;;;;;5068787;28;20029;-58
2024/01/11 10:55:16;;;;;;;34.55;13.27;;;;;;;;;;5061890;28;20492;-59
2024/01/11 10:57:41;;;;;;;37.65;14.30;;;;;;;;;;5059669;28;20099;-59
2024/01/11 11:00:10;;;;;;;34.13;13.75;;;;;;;;;;5072579;28;20028;-59
2024/01/11 11:02:36;;;;;;;37.40;14.50;;;;;;;;;;5073316;28;20035;-58
2024/01/11 11:05:04;;;;;;;36.97;15.20;;;;;;;;;;5073373;28;20016;-55
2024/01/11 11:07:29;;;;;;;43.60;17.83;;;;;;;;;;5061639;28;20052;-58
2024/01/11 11:09:56;;;;;;;45.55;16.38;;;;;;;;;;5073392;28;20104;-59
2024/01/11 11:12:21;;;;;;;43.85;17.17;;;;;;;;;;5073201;28;20016;-59
2024/01/11 11:14:47;;;;;;;46.13;18.60;;;;;;;;;;5072358;28;20453;-60
2024/01/11 11:17:14;;;;;;;41.33;16.50;;;;;;;;;;5072090;28;20017;-58
2024/01/11 11:19:40;;;;;;;40.42;15.85;;;;;;;;;;5069836;28;20048;-59
2024/01/11 11:22:06;;;;;;;44.07;17.47;;;;;;;;;;5069859;28;20403;-58
2024/01/11 11:24:33;;;;;;;45.92;16.90;;;;;;;;;;5069834;28;20041;-59
2024/01/11 11:26:59;;;;;;;46.95;16.42;;;;;;;;;;5071937;28;20035;-58
2024/01/11 11:29:24;;;;;;;35.30;14.98;;;;;;;;;;5071888;28;20024;-59
2024/01/11 11:31:53;;;;;;;47.80;19.80;;;;;;;;;;5072014;28;20062;-58
2024/01/11 11:34:19;;;;;;;50.42;19.92;;;;;;;;;;5071704;28;20025;-58
2024/01/11 11:36:46;;;;;;;56.42;21.60;;;;;;;;;;5068529;28;20043;-58
2024/01/11 11:39:14;;;;;;;57.03;21.65;;;;;;;;;;5072410;28;20031;-58
2024/01/11 11:41:40;;;;;;;58.20;23.25;;;;;;;;;;5072236;28;20233;-58
2024/01/11 11:44:05;;;;;;;61.50;22.65;;;;;;;;;;5070040;28;20115;-59
2024/01/11 11:46:33;;;;;;;55.58;21.23;;;;;;;;;;5072002;28;20093;-57
2024/01/11 11:48:59;;;;;;;54.30;20.83;;;;;;;;;;5071904;28;20024;-59
2024/01/11 11:51:25;;;;;;;55.35;22.25;;;;;;;;;;5069306;28;20135;-58
2024/01/11 11:53:51;;;;;;;52.97;22.33;;;;;;;;;;5061044;28;20530;-58
2024/01/11 11:56:17;;;;;;;52.20;21.10;;;;;;;;;;5065436;28;20027;-58
2024/01/11 11:58:45;;;;;;;49.55;20.42;;;;;;;;;;5071044;28;20024;-59
2024/01/11 12:01:11;;;;;;;53.67;20.13;;;;;;;;;;5070634;28;20024;-58
2024/01/11 12:03:37;;;;;;;54.88;20.55;;;;;;;;;;5069621;28;20036;-57
2024/01/11 12:06:02;;;;;;;48.10;19.25;;;;;;;;;;5071618;28;20017;-58
2024/01/11 12:08:27;;;;;;;50.10;19.17;;;;;;;;;;5062386;28;20490;-58
2024/01/11 12:10:53;;;;;;;47.33;18.75;;;;;;;;;;5069674;28;20020;-59
2024/01/11 12:13:18;;;;;;;49.17;19.73;;;;;;;;;;5070782;28;20028;-59
2024/01/11 12:15:43;;;;;;;49.00;18.23;;;;;;;;;;5070984;28;20431;-58
2024/01/11 12:18:08;;;;;;;51.33;19.63;;;;;;;;;;5070983;28;20396;-58
2024/01/11 12:20:33;;;;;;;53.13;19.60;;;;;;;;;;5070733;28;20017;-59
2024/01/11 12:22:59;;;;;;;47.17;19.40;;;;;;;;;;5069038;28;20028;-59
2024/01/11 12:25:24;;;;;;;49.20;18.00;;;;;;;;;;5070644;28;20032;-59
2024/01/11 12:27:50;;;;;;;50.78;18.45;;;;;;;;;;5070823;28;20020;-58
2024/01/11 12:30:16;;;;;;;43.67;18.00;;;;;;;;;;5070950;28;20013;-58
2024/01/11 12:32:42;;;;;;;45.10;18.35;;;;;;;;;;5070537;28;20021;-58
2024/01/11 12:35:07;;;;;;;49.00;19.58;;;;;;;;;;5070815;28;20477;-59
2024/01/11 12:37:32;;;;;;;46.80;19.17;;;;;;;;;;5063437;28;20388;-58
2024/01/11 12:39:58;;;;;;;43.20;17.58;;;;;;;;;;5070650;28;20020;-58
2024/01/11 12:42:23;;;;;;;44.65;18.00;;;;;;;;;;5063629;28;20020;-59
2024/01/11 12:44:50;;;;;;;53.57;18.43;;;;;;;;;;5051080;28;20082;-58
2024/01/11 12:47:15;;;;;;;45.92;17.63;;;;;;;;;;5050922;28;20025;-58
2024/01/11 12:49:43;;;;;;;47.60;18.33;;;;;;;;;;5050378;28;20548;-59
2024/01/11 12:52:14;;;;;;;49.42;18.30;;;;;;;;;;5050398;28;20504;-58
2024/01/11 12:54:40;;;;;;;46.00;18.25;;;;;;;;;;5058973;28;20755;-58
2024/01/11 12:57:05;;;;;;;50.53;17.88;;;;;;;;;;5070525;28;20056;-58
2024/01/11 12:59:30;;;;;;;52.37;19.10;;;;;;;;;;5069785;28;20028;-57
2024/01/11 13:01:56;;;;;;;47.17;19.33;;;;;;;;;;5070516;28;20054;-57
2024/01/11 13:04:22;;;;;;;51.17;17.88;;;;;;;;;;5071053;28;20021;-60
2024/01/11 13:06:47;;;;;;;54.67;20.10;;;;;;;;;;5070324;28;20372;-59
2024/01/11 13:09:14;;;;;;;47.83;18.63;;;;;;;;;;5071324;28;20017;-59
2024/01/11 13:11:39;;;;;;;49.15;17.75;;;;;;;;;;5062036;28;20487;-59
2024/01/11 13:14:07;;;;;;;44.15;18.33;;;;;;;;;;5070603;28;20119;-59
2024/01/11 13:16:32;;;;;;;46.25;18.40;;;;;;;;;;5071563;28;20099;-60
2024/01/11 13:18:57;;;;;;;46.28;17.95;;;;;;;;;;5075333;28;20498;-59
2024/01/11 13:21:22;;;;;;;44.03;16.60;;;;;;;;;;5075218;28;20100;-58
2024/01/11 13:23:48;;;;;;;44.13;17.40;;;;;;;;;;5071740;28;20036;-58
2024/01/11 13:26:13;;;;;;;44.40;16.93;;;;;;;;;;5068061;28;20495;-57
2024/01/11 13:28:38;;;;;;;42.97;16.57;;;;;;;;;;5074821;28;20089;-59
2024/01/11 13:31:03;;;;;;;44.00;16.07;;;;;;;;;;5074611;28;20436;-59
2024/01/11 13:33:28;;;;;;;44.90;16.47;;;;;;;;;;5063878;28;20546;-59
2024/01/11 13:35:54;;;;;;;41.93;16.47;;;;;;;;;;5072389;28;20020;-59
2024/01/11 13:38:19;;;;;;;47.77;16.73;;;;;;;;;;5075140;28;20429;-59
2024/01/11 13:40:44;;;;;;;43.03;16.10;;;;;;;;;;5078938;28;20123;-59
2024/01/11 13:43:09;;;;;;;40.90;16.05;;;;;;;;;;5077837;28;20032;-59
2024/01/11 13:45:38;;;;;;;42.35;16.30;;;;;;;;;;5077821;28;20529;-59
2024/01/11 13:48:03;;;;;;;41.00;15.55;;;;;;;;;;5073604;28;20471;-59
2024/01/11 13:50:29;;;;;;;42.70;16.63;;;;;;;;;;5072467;28;20017;-59
2024/01/11 13:52:54;;;;;;;43.78;16.08;;;;;;;;;;5065372;28;20037;-58
2024/01/11 13:55:22;;;;;;;36.58;15.70;;;;;;;;;;5063936;28;20408;-58
2024/01/11 13:57:51;;;;;;;40.65;15.00;;;;;;;;;;5076782;28;20024;-56
2024/01/11 14:00:18;;;;;;;42.05;15.93;;;;;;;;;;5074075;28;20123;-57
2024/01/11 14:02:43;;;;;;;41.97;16.85;;;;;;;;;;5064959;28;20531;-58
2024/01/11 14:05:13;;;;;;;43.25;16.63;;;;;;;;;;5074507;28;20052;-59
2024/01/11 14:07:39;;;;;;;41.33;16.10;;;;;;;;;;5073356;28;20013;-58
2024/01/11 14:10:05;;;;;;;40.05;15.52;;;;;;;;;;5071890;28;20044;-58
2024/01/11 14:12:30;;;;;;;43.85;16.05;;;;;;;;;;5069803;28;20021;-58
2024/01/11 14:14:55;;;;;;;42.53;16.00;;;;;;;;;;5070013;28;20568;-59
2024/01/11 14:17:21;;;;;;;40.83;16.20;;;;;;;;;;5064941;28;20031;-58